sensor_id;sensor_type;location;lat;lon;timestamp;temperature;humidity
9323;DHT22;4700;48.822;9.270;2023-04-03T00:03:58;3.70;1.00
9323;DHT22;4700;48.822;9.270;2023-04-03T00:06:45;3.70;1.00
9323;DHT22;4700;48.822;9.270;2023-04-03T00:09:33;3.70;1.00
9323;DHT22;4700;48.822;9.270;2023-04-03T00:14:55;3.50;1.00
9323;DHT22;4700;48.822;9.270;2023-04-03T00:17:41;3.70;1.00
9323;DHT22;4700;48.822;9.270;2023-04-03T00:20:27;3.70;1.00
9323;DHT22;4700;48.822;9.270;2023-04-03T00:28:24;3.60;1.00
9323;DHT22;4700;48.822;9.270;2023-04-03T00:31:14;3.60;1.00
9323;DHT22;4700;48.822;9.270;2023-04-03T00:36:46;3.60;1.00
9323;DHT22;4700;48.822;9.270;2023-04-03T00:39:34;3.60;1.00
9323;DHT22;4700;48.822;9.270;2023-04-03T00:42:20;3.50;1.00
9323;DHT22;4700;48.822;9.270;2023-04-03T00:52:58;3.40;1.00
9323;DHT22;4700;48.822;9.270;2023-04-03T00:55:55;3.40;1.00
9323;DHT22;4700;48.822;9.270;2023-04-03T00:58:44;3.40;1.00
9323;DHT22;4700;48.822;9.270;2023-04-03T01:01:32;3.40;1.00
9323;DHT22;4700;48.822;9.270;2023-04-03T01:09:21;3.30;1.00
9323;DHT22;4700;48.822;9.270;2023-04-03T01:14:43;3.20;1.00
9323;DHT22;4700;48.822;9.270;2023-04-03T01:17:32;3.20;1.00
9323;DHT22;4700;48.822;9.270;2023-04-03T01:20:59;3.20;1.00
9323;DHT22;4700;48.822;9.270;2023-04-03T01:24:00;3.20;1.00
9323;DHT22;4700;48.822;9.270;2023-04-03T01:47:35;3.20;1.00
9323;DHT22;4700;48.822;9.270;2023-04-03T01:55:22;3.20;1.00
9323;DHT22;4700;48.822;9.270;2023-04-03T02:11:01;3.10;1.00
9323;DHT22;4700;48.822;9.270;2023-04-03T02:23:57;3.10;1.00
9323;DHT22;4700;48.822;9.270;2023-04-03T02:26:45;3.10;1.00
9323;DHT22;4700;48.822;9.270;2023-04-03T02:32:01;3.20;1.00
9323;DHT22;4700;48.822;9.270;2023-04-03T02:47:24;3.30;1.00
9323;DHT22;4700;48.822;9.270;2023-04-03T03:00:26;3.30;1.00
9323;DHT22;4700;48.822;9.270;2023-04-03T03:03:14;3.40;1.00
9323;DHT22;4700;48.822;9.270;2023-04-03T03:08:30;3.40;1.00
9323;DHT22;4700;48.822;9.270;2023-04-03T03:16:25;3.40;1.00
9323;DHT22;4700;48.822;9.270;2023-04-03T03:37:23;3.60;1.00
9323;DHT22;4700;48.822;9.270;2023-04-03T03:40:10;3.50;1.00
9323;DHT22;4700;48.822;9.270;2023-04-03T03:42:57;3.60;1.00
9323;DHT22;4700;48.822;9.270;2023-04-03T03:45:43;3.60;1.00
9323;DHT22;4700;48.822;9.270;2023-04-03T03:48:30;5.10;1.00
9323;DHT22;4700;48.822;9.270;2023-04-03T04:04:44;3.70;1.00
9323;DHT22;4700;48.822;9.270;2023-04-03T04:12:40;3.80;1.00
9323;DHT22;4700;48.822;9.270;2023-04-03T04:15:26;3.90;1.00
9323;DHT22;4700;48.822;9.270;2023-04-03T04:18:12;3.80;1.00
9323;DHT22;4700;48.822;9.270;2023-04-03T04:20:59;3.80;1.00
9323;DHT22;4700;48.822;9.270;2023-04-03T04:26:21;3.80;1.00
9323;DHT22;4700;48.822;9.270;2023-04-03T04:31:40;3.70;1.00
9323;DHT22;4700;48.822;9.270;2023-04-03T04:34:26;3.70;1.00
9323;DHT22;4700;48.822;9.270;2023-04-03T04:37:13;3.80;1.00
9323;DHT22;4700;48.822;9.270;2023-04-03T04:39:59;3.80;1.00
9323;DHT22;4700;48.822;9.270;2023-04-03T04:42:48;3.80;1.00
9323;DHT22;4700;48.822;9.270;2023-04-03T04:45:34;3.80;1.00
9323;DHT22;4700;48.822;9.270;2023-04-03T04:51:06;3.80;1.00
9323;DHT22;4700;48.822;9.270;2023-04-03T04:53:53;3.90;1.00
9323;DHT22;4700;48.822;9.270;2023-04-03T04:56:39;4.00;1.00
9323;DHT22;4700;48.822;9.270;2023-04-03T04:59:25;4.20;1.00
9323;DHT22;4700;48.822;9.270;2023-04-03T05:02:11;4.30;1.00
9323;DHT22;4700;48.822;9.270;2023-04-03T05:04:57;4.30;1.00
9323;DHT22;4700;48.822;9.270;2023-04-03T05:07:42;4.40;1.00
9323;DHT22;4700;48.822;9.270;2023-04-03T05:10:30;4.40;1.00
9323;DHT22;4700;48.822;9.270;2023-04-03T05:13:16;4.40;1.00
9323;DHT22;4700;48.822;9.270;2023-04-03T05:16:02;4.30;1.00
9323;DHT22;4700;48.822;9.270;2023-04-03T05:18:48;4.30;1.00
9323;DHT22;4700;48.822;9.270;2023-04-03T05:21:34;4.40;1.00
9323;DHT22;4700;48.822;9.270;2023-04-03T05:24:20;4.30;1.00
9323;DHT22;4700;48.822;9.270;2023-04-03T05:27:07;4.30;1.00
9323;DHT22;4700;48.822;9.270;2023-04-03T05:29:53;4.40;1.00
9323;DHT22;4700;48.822;9.270;2023-04-03T05:32:39;4.40;1.00
9323;DHT22;4700;48.822;9.270;2023-04-03T05:35:25;4.30;1.00
9323;DHT22;4700;48.822;9.270;2023-04-03T05:38:14;4.50;1.00
9323;DHT22;4700;48.822;9.270;2023-04-03T05:41:03;4.40;1.00
9323;DHT22;4700;48.822;9.270;2023-04-03T05:43:50;4.40;1.00
9323;DHT22;4700;48.822;9.270;2023-04-03T05:46:36;4.30;1.00
9323;DHT22;4700;48.822;9.270;2023-04-03T05:49:22;4.20;1.00
9323;DHT22;4700;48.822;9.270;2023-04-03T05:52:17;4.00;1.00
9323;DHT22;4700;48.822;9.270;2023-04-03T05:55:06;3.90;1.00
9323;DHT22;4700;48.822;9.270;2023-04-03T05:57:55;3.80;1.00
9323;DHT22;4700;48.822;9.270;2023-04-03T06:03:28;3.80;1.00
9323;DHT22;4700;48.822;9.270;2023-04-03T06:06:14;3.90;1.00
9323;DHT22;4700;48.822;9.270;2023-04-03T06:09:01;3.90;1.00
9323;DHT22;4700;48.822;9.270;2023-04-03T06:11:46;4.00;1.00
9323;DHT22;4700;48.822;9.270;2023-04-03T06:14:32;4.00;1.00
9323;DHT22;4700;48.822;9.270;2023-04-03T06:17:19;4.00;1.00
9323;DHT22;4700;48.822;9.270;2023-04-03T06:20:06;4.10;1.00
9323;DHT22;4700;48.822;9.270;2023-04-03T06:22:52;4.00;1.00
9323;DHT22;4700;48.822;9.270;2023-04-03T06:25:38;4.10;1.00
9323;DHT22;4700;48.822;9.270;2023-04-03T06:28:24;3.80;1.00
9323;DHT22;4700;48.822;9.270;2023-04-03T06:31:10;4.40;1.00
9323;DHT22;4700;48.822;9.270;2023-04-03T06:33:58;4.50;1.00
9323;DHT22;4700;48.822;9.270;2023-04-03T06:36:45;4.40;1.00
9323;DHT22;4700;48.822;9.270;2023-04-03T06:39:31;4.60;1.00
9323;DHT22;4700;48.822;9.270;2023-04-03T06:42:17;4.60;1.00
9323;DHT22;4700;48.822;9.270;2023-04-03T06:45:04;5.00;1.00
9323;DHT22;4700;48.822;9.270;2023-04-03T06:47:53;4.90;1.00
9323;DHT22;4700;48.822;9.270;2023-04-03T06:50:41;5.00;1.00
9323;DHT22;4700;48.822;9.270;2023-04-03T06:53:27;4.60;1.00
9323;DHT22;4700;48.822;9.270;2023-04-03T06:56:13;4.60;1.00
9323;DHT22;4700;48.822;9.270;2023-04-03T06:58:59;4.50;1.00
9323;DHT22;4700;48.822;9.270;2023-04-03T07:01:46;5.10;1.00
9323;DHT22;4700;48.822;9.270;2023-04-03T07:04:33;5.10;1.00
9323;DHT22;4700;48.822;9.270;2023-04-03T07:07:22;5.10;1.00
9323;DHT22;4700;48.822;9.270;2023-04-03T07:10:08;5.00;1.00
9323;DHT22;4700;48.822;9.270;2023-04-03T07:15:42;5.00;1.00
9323;DHT22;4700;48.822;9.270;2023-04-03T07:18:29;5.20;1.00
9323;DHT22;4700;48.822;9.270;2023-04-03T07:21:16;5.40;1.00
9323;DHT22;4700;48.822;9.270;2023-04-03T07:24:03;5.50;1.00
9323;DHT22;4700;48.822;9.270;2023-04-03T07:26:49;5.50;1.00
9323;DHT22;4700;48.822;9.270;2023-04-03T07:29:35;5.70;1.00
9323;DHT22;4700;48.822;9.270;2023-04-03T07:32:22;5.60;1.00
9323;DHT22;4700;48.822;9.270;2023-04-03T07:35:08;5.60;1.00
9323;DHT22;4700;48.822;9.270;2023-04-03T07:37:58;6.10;1.00
9323;DHT22;4700;48.822;9.270;2023-04-03T07:40:49;6.10;1.00
9323;DHT22;4700;48.822;9.270;2023-04-03T07:43:37;5.90;1.00
9323;DHT22;4700;48.822;9.270;2023-04-03T07:46:23;5.90;1.00
9323;DHT22;4700;48.822;9.270;2023-04-03T07:49:09;5.90;1.00
9323;DHT22;4700;48.822;9.270;2023-04-03T07:51:56;5.80;1.00
9323;DHT22;4700;48.822;9.270;2023-04-03T07:54:42;5.70;1.00
9323;DHT22;4700;48.822;9.270;2023-04-03T07:57:32;5.70;1.00
9323;DHT22;4700;48.822;9.270;2023-04-03T08:00:22;5.40;1.00
9323;DHT22;4700;48.822;9.270;2023-04-03T08:03:11;5.60;1.00
9323;DHT22;4700;48.822;9.270;2023-04-03T08:06:02;5.70;1.00
9323;DHT22;4700;48.822;9.270;2023-04-03T08:08:48;5.70;1.00
9323;DHT22;4700;48.822;9.270;2023-04-03T08:11:34;5.70;1.00
9323;DHT22;4700;48.822;9.270;2023-04-03T08:19:59;6.30;1.00
9323;DHT22;4700;48.822;9.270;2023-04-03T08:22:45;6.90;1.00
9323;DHT22;4700;48.822;9.270;2023-04-03T08:25:30;7.20;1.00
9323;DHT22;4700;48.822;9.270;2023-04-03T08:28:16;7.30;1.00
9323;DHT22;4700;48.822;9.270;2023-04-03T08:31:05;7.50;1.00
9323;DHT22;4700;48.822;9.270;2023-04-03T08:33:51;7.70;1.00
9323;DHT22;4700;48.822;9.270;2023-04-03T08:36:38;7.00;1.00
9323;DHT22;4700;48.822;9.270;2023-04-03T08:39:24;6.50;1.00
9323;DHT22;4700;48.822;9.270;2023-04-03T08:42:15;6.30;1.00
9323;DHT22;4700;48.822;9.270;2023-04-03T08:45:10;6.10;1.00
9323;DHT22;4700;48.822;9.270;2023-04-03T08:48:02;6.10;1.00
9323;DHT22;4700;48.822;9.270;2023-04-03T08:50:56;6.10;1.00
9323;DHT22;4700;48.822;9.270;2023-04-03T08:53:47;6.20;1.00
9323;DHT22;4700;48.822;9.270;2023-04-03T08:56:35;6.00;1.00
9323;DHT22;4700;48.822;9.270;2023-04-03T08:59:26;6.40;1.00
9323;DHT22;4700;48.822;9.270;2023-04-03T09:02:23;7.00;1.00
9323;DHT22;4700;48.822;9.270;2023-04-03T09:05:15;7.20;1.00
9323;DHT22;4700;48.822;9.270;2023-04-03T09:08:05;7.80;1.00
9323;DHT22;4700;48.822;9.270;2023-04-03T09:11:00;7.70;1.00
9323;DHT22;4700;48.822;9.270;2023-04-03T09:13:56;6.70;1.00
9323;DHT22;4700;48.822;9.270;2023-04-03T09:16:48;6.80;1.00
9323;DHT22;4700;48.822;9.270;2023-04-03T09:19:39;6.60;1.00
9323;DHT22;4700;48.822;9.270;2023-04-03T09:22:31;6.80;1.00
9323;DHT22;4700;48.822;9.270;2023-04-03T09:25:20;7.10;1.00
9323;DHT22;4700;48.822;9.270;2023-04-03T09:28:10;7.00;1.00
9323;DHT22;4700;48.822;9.270;2023-04-03T09:30:56;7.00;1.00
9323;DHT22;4700;48.822;9.270;2023-04-03T09:33:42;6.80;1.00
9323;DHT22;4700;48.822;9.270;2023-04-03T09:39:29;6.80;1.00
9323;DHT22;4700;48.822;9.270;2023-04-03T09:42:18;6.80;1.00
9323;DHT22;4700;48.822;9.270;2023-04-03T09:45:20;6.80;1.00
9323;DHT22;4700;48.822;9.270;2023-04-03T09:48:14;7.10;1.00
9323;DHT22;4700;48.822;9.270;2023-04-03T09:51:04;7.00;1.00
9323;DHT22;4700;48.822;9.270;2023-04-03T09:53:50;7.00;1.00
9323;DHT22;4700;48.822;9.270;2023-04-03T09:56:37;7.10;1.00
9323;DHT22;4700;48.822;9.270;2023-04-03T09:59:24;7.00;1.00
9323;DHT22;4700;48.822;9.270;2023-04-03T10:02:23;7.00;1.00
9323;DHT22;4700;48.822;9.270;2023-04-03T10:05:31;6.90;1.00
9323;DHT22;4700;48.822;9.270;2023-04-03T10:08:25;7.20;1.00
9323;DHT22;4700;48.822;9.270;2023-04-03T10:11:13;7.50;1.00
9323;DHT22;4700;48.822;9.270;2023-04-03T10:14:02;6.90;1.00
9323;DHT22;4700;48.822;9.270;2023-04-03T10:16:56;6.90;1.00
9323;DHT22;4700;48.822;9.270;2023-04-03T10:19:46;6.70;1.00
9323;DHT22;4700;48.822;9.270;2023-04-03T10:22:40;6.50;1.00
9323;DHT22;4700;48.822;9.270;2023-04-03T10:25:34;6.50;1.00
9323;DHT22;4700;48.822;9.270;2023-04-03T10:28:28;6.40;1.00
9323;DHT22;4700;48.822;9.270;2023-04-03T10:31:21;6.30;1.00
9323;DHT22;4700;48.822;9.270;2023-04-03T10:34:18;6.20;1.00
9323;DHT22;4700;48.822;9.270;2023-04-03T10:37:13;6.30;1.00
9323;DHT22;4700;48.822;9.270;2023-04-03T10:40:15;6.30;1.00
9323;DHT22;4700;48.822;9.270;2023-04-03T10:43:06;6.20;1.00
9323;DHT22;4700;48.822;9.270;2023-04-03T10:46:00;6.20;1.00
9323;DHT22;4700;48.822;9.270;2023-04-03T10:49:06;6.40;1.00
9323;DHT22;4700;48.822;9.270;2023-04-03T10:52:05;6.70;1.00
9323;DHT22;4700;48.822;9.270;2023-04-03T10:54:58;6.70;1.00
9323;DHT22;4700;48.822;9.270;2023-04-03T10:57:46;6.80;1.00
9323;DHT22;4700;48.822;9.270;2023-04-03T11:00:38;7.00;1.00
9323;DHT22;4700;48.822;9.270;2023-04-03T11:03:30;7.00;1.00
9323;DHT22;4700;48.822;9.270;2023-04-03T11:06:22;6.80;1.00
9323;DHT22;4700;48.822;9.270;2023-04-03T11:09:18;6.70;1.00
9323;DHT22;4700;48.822;9.270;2023-04-03T11:12:09;6.60;1.00
9323;DHT22;4700;48.822;9.270;2023-04-03T11:14:57;6.70;1.00
9323;DHT22;4700;48.822;9.270;2023-04-03T11:17:46;6.90;1.00
9323;DHT22;4700;48.822;9.270;2023-04-03T11:20:35;7.10;1.00
9323;DHT22;4700;48.822;9.270;2023-04-03T11:23:25;7.20;1.00
9323;DHT22;4700;48.822;9.270;2023-04-03T11:26:16;7.20;1.00
9323;DHT22;4700;48.822;9.270;2023-04-03T11:29:06;7.00;1.00
9323;DHT22;4700;48.822;9.270;2023-04-03T11:32:10;7.10;1.00
9323;DHT22;4700;48.822;9.270;2023-04-03T11:35:00;6.90;1.00
9323;DHT22;4700;48.822;9.270;2023-04-03T11:37:49;7.00;1.00
9323;DHT22;4700;48.822;9.270;2023-04-03T11:40:38;6.90;1.00
9323;DHT22;4700;48.822;9.270;2023-04-03T11:43:26;7.00;1.00
9323;DHT22;4700;48.822;9.270;2023-04-03T11:46:16;7.20;1.00
9323;DHT22;4700;48.822;9.270;2023-04-03T11:53:10;7.80;1.00
9323;DHT22;4700;48.822;9.270;2023-04-03T11:56:33;7.80;1.00
9323;DHT22;4700;48.822;9.270;2023-04-03T11:59:28;7.60;1.00
9323;DHT22;4700;48.822;9.270;2023-04-03T12:02:43;7.50;1.00
9323;DHT22;4700;48.822;9.270;2023-04-03T12:05:37;7.30;1.00
9323;DHT22;4700;48.822;9.270;2023-04-03T12:08:29;7.20;1.00
9323;DHT22;4700;48.822;9.270;2023-04-03T12:11:31;7.40;1.00
9323;DHT22;4700;48.822;9.270;2023-04-03T12:14:25;7.80;1.00
9323;DHT22;4700;48.822;9.270;2023-04-03T12:17:23;7.80;1.00
9323;DHT22;4700;48.822;9.270;2023-04-03T12:26:48;7.90;1.00
9323;DHT22;4700;48.822;9.270;2023-04-03T12:29:43;7.50;1.00
9323;DHT22;4700;48.822;9.270;2023-04-03T12:32:58;7.40;1.00
9323;DHT22;4700;48.822;9.270;2023-04-03T12:36:03;7.20;1.00
9323;DHT22;4700;48.822;9.270;2023-04-03T12:39:12;7.10;1.00
9323;DHT22;4700;48.822;9.270;2023-04-03T12:42:18;6.90;1.00
9323;DHT22;4700;48.822;9.270;2023-04-03T12:45:19;7.00;1.00
9323;DHT22;4700;48.822;9.270;2023-04-03T12:48:14;7.00;1.00
9323;DHT22;4700;48.822;9.270;2023-04-03T12:51:06;7.20;1.00
9323;DHT22;4700;48.822;9.270;2023-04-03T12:54:01;7.10;1.00
9323;DHT22;4700;48.822;9.270;2023-04-03T13:00:10;7.40;1.00
9323;DHT22;4700;48.822;9.270;2023-04-03T13:03:22;7.40;1.00
9323;DHT22;4700;48.822;9.270;2023-04-03T13:06:14;7.50;1.00
9323;DHT22;4700;48.822;9.270;2023-04-03T13:09:14;7.70;1.00
9323;DHT22;4700;48.822;9.270;2023-04-03T13:12:11;7.80;1.00
9323;DHT22;4700;48.822;9.270;2023-04-03T13:15:13;8.10;1.00
9323;DHT22;4700;48.822;9.270;2023-04-03T13:20:49;7.50;1.00
9323;DHT22;4700;48.822;9.270;2023-04-03T13:23:37;7.50;1.00
9323;DHT22;4700;48.822;9.270;2023-04-03T13:26:30;7.30;1.00
9323;DHT22;4700;48.822;9.270;2023-04-03T13:29:23;7.30;1.00
9323;DHT22;4700;48.822;9.270;2023-04-03T13:32:18;7.70;1.00
9323;DHT22;4700;48.822;9.270;2023-04-03T13:35:31;7.90;1.00
9323;DHT22;4700;48.822;9.270;2023-04-03T13:38:25;8.00;1.00
9323;DHT22;4700;48.822;9.270;2023-04-03T13:41:25;8.20;1.00
9323;DHT22;4700;48.822;9.270;2023-04-03T13:44:26;8.20;1.00
9323;DHT22;4700;48.822;9.270;2023-04-03T13:47:19;8.20;1.00
9323;DHT22;4700;48.822;9.270;2023-04-03T13:50:17;8.10;1.00
9323;DHT22;4700;48.822;9.270;2023-04-03T13:53:10;8.20;1.00
9323;DHT22;4700;48.822;9.270;2023-04-03T13:56:15;7.90;1.00
9323;DHT22;4700;48.822;9.270;2023-04-03T13:59:21;7.90;1.00
9323;DHT22;4700;48.822;9.270;2023-04-03T14:02:15;7.80;1.00
9323;DHT22;4700;48.822;9.270;2023-04-03T14:05:08;7.80;1.00
9323;DHT22;4700;48.822;9.270;2023-04-03T14:07:55;7.70;1.00
9323;DHT22;4700;48.822;9.270;2023-04-03T14:10:41;7.60;1.00
9323;DHT22;4700;48.822;9.270;2023-04-03T14:13:30;7.70;1.00
9323;DHT22;4700;48.822;9.270;2023-04-03T14:16:21;7.70;1.00
9323;DHT22;4700;48.822;9.270;2023-04-03T14:19:19;7.80;1.00
9323;DHT22;4700;48.822;9.270;2023-04-03T14:22:16;7.60;1.00
9323;DHT22;4700;48.822;9.270;2023-04-03T14:25:03;7.80;1.00
9323;DHT22;4700;48.822;9.270;2023-04-03T14:27:50;7.90;1.00
9323;DHT22;4700;48.822;9.270;2023-04-03T14:30:39;8.20;1.00
9323;DHT22;4700;48.822;9.270;2023-04-03T14:33:25;7.90;1.00
9323;DHT22;4700;48.822;9.270;2023-04-03T14:36:17;7.80;1.00
9323;DHT22;4700;48.822;9.270;2023-04-03T14:39:07;7.60;1.00
9323;DHT22;4700;48.822;9.270;2023-04-03T14:41:53;7.60;1.00
9323;DHT22;4700;48.822;9.270;2023-04-03T14:44:39;7.60;1.00
9323;DHT22;4700;48.822;9.270;2023-04-03T14:47:27;7.70;1.00
9323;DHT22;4700;48.822;9.270;2023-04-03T14:50:15;8.00;1.00
9323;DHT22;4700;48.822;9.270;2023-04-03T14:53:05;9.00;1.00
9323;DHT22;4700;48.822;9.270;2023-04-03T14:55:52;7.90;1.00
9323;DHT22;4700;48.822;9.270;2023-04-03T14:58:38;7.80;1.00
9323;DHT22;4700;48.822;9.270;2023-04-03T15:01:27;7.60;1.00
9323;DHT22;4700;48.822;9.270;2023-04-03T15:04:13;7.50;1.00
9323;DHT22;4700;48.822;9.270;2023-04-03T15:07:00;7.70;1.00
9323;DHT22;4700;48.822;9.270;2023-04-03T15:09:45;7.90;1.00
9323;DHT22;4700;48.822;9.270;2023-04-03T15:12:33;8.00;1.00
9323;DHT22;4700;48.822;9.270;2023-04-03T15:15:20;7.70;1.00
9323;DHT22;4700;48.822;9.270;2023-04-03T15:18:06;7.60;1.00
9323;DHT22;4700;48.822;9.270;2023-04-03T15:20:52;7.50;1.00
9323;DHT22;4700;48.822;9.270;2023-04-03T15:23:39;7.50;1.00
9323;DHT22;4700;48.822;9.270;2023-04-03T15:26:25;7.60;1.00
9323;DHT22;4700;48.822;9.270;2023-04-03T15:29:12;7.50;1.00
9323;DHT22;4700;48.822;9.270;2023-04-03T15:31:58;7.50;1.00
9323;DHT22;4700;48.822;9.270;2023-04-03T15:34:53;7.50;1.00
9323;DHT22;4700;48.822;9.270;2023-04-03T15:37:39;7.50;1.00
9323;DHT22;4700;48.822;9.270;2023-04-03T15:40:26;7.40;1.00
9323;DHT22;4700;48.822;9.270;2023-04-03T15:43:12;7.40;1.00
9323;DHT22;4700;48.822;9.270;2023-04-03T15:46:01;7.40;1.00
9323;DHT22;4700;48.822;9.270;2023-04-03T15:48:49;7.50;1.00
9323;DHT22;4700;48.822;9.270;2023-04-03T15:51:35;7.70;1.00
9323;DHT22;4700;48.822;9.270;2023-04-03T15:54:21;8.00;1.00
9323;DHT22;4700;48.822;9.270;2023-04-03T15:57:09;8.00;1.00
9323;DHT22;4700;48.822;9.270;2023-04-03T15:59:57;8.10;1.00
9323;DHT22;4700;48.822;9.270;2023-04-03T16:02:45;8.00;1.00
9323;DHT22;4700;48.822;9.270;2023-04-03T16:05:32;8.00;1.00
9323;DHT22;4700;48.822;9.270;2023-04-03T16:08:19;7.60;1.00
9323;DHT22;4700;48.822;9.270;2023-04-03T16:11:06;7.30;1.00
9323;DHT22;4700;48.822;9.270;2023-04-03T16:13:52;7.20;1.00
9323;DHT22;4700;48.822;9.270;2023-04-03T16:16:38;7.20;1.00
9323;DHT22;4700;48.822;9.270;2023-04-03T16:19:26;7.10;1.00
9323;DHT22;4700;48.822;9.270;2023-04-03T16:22:12;8.10;1.00
9323;DHT22;4700;48.822;9.270;2023-04-03T16:24:58;8.30;1.00
9323;DHT22;4700;48.822;9.270;2023-04-03T16:27:44;9.20;1.00
9323;DHT22;4700;48.822;9.270;2023-04-03T16:30:30;9.00;1.00
9323;DHT22;4700;48.822;9.270;2023-04-03T16:33:15;8.50;1.00
9323;DHT22;4700;48.822;9.270;2023-04-03T16:36:03;8.30;1.00
9323;DHT22;4700;48.822;9.270;2023-04-03T16:38:38;7.90;1.00
9323;DHT22;4700;48.822;9.270;2023-04-03T16:41:24;7.60;1.00
9323;DHT22;4700;48.822;9.270;2023-04-03T16:44:10;7.30;1.00
9323;DHT22;4700;48.822;9.270;2023-04-03T16:46:58;7.20;1.00
9323;DHT22;4700;48.822;9.270;2023-04-03T16:49:44;7.10;1.00
9323;DHT22;4700;48.822;9.270;2023-04-03T16:52:31;7.20;1.00
9323;DHT22;4700;48.822;9.270;2023-04-03T16:55:17;7.30;1.00
9323;DHT22;4700;48.822;9.270;2023-04-03T16:58:03;7.20;1.00
9323;DHT22;4700;48.822;9.270;2023-04-03T17:00:49;7.30;1.00
9323;DHT22;4700;48.822;9.270;2023-04-03T17:03:34;7.20;1.00
9323;DHT22;4700;48.822;9.270;2023-04-03T17:06:21;7.10;1.00
9323;DHT22;4700;48.822;9.270;2023-04-03T17:09:09;6.90;1.00
9323;DHT22;4700;48.822;9.270;2023-04-03T17:11:56;6.60;1.00
9323;DHT22;4700;48.822;9.270;2023-04-03T17:14:42;6.50;1.00
9323;DHT22;4700;48.822;9.270;2023-04-03T17:17:31;6.40;1.00
9323;DHT22;4700;48.822;9.270;2023-04-03T17:20:17;6.30;1.00
9323;DHT22;4700;48.822;9.270;2023-04-03T17:23:03;6.30;1.00
9323;DHT22;4700;48.822;9.270;2023-04-03T17:25:51;6.20;1.00
9323;DHT22;4700;48.822;9.270;2023-04-03T17:28:40;6.20;1.00
9323;DHT22;4700;48.822;9.270;2023-04-03T17:31:26;6.10;1.00
9323;DHT22;4700;48.822;9.270;2023-04-03T17:34:13;6.00;1.00
9323;DHT22;4700;48.822;9.270;2023-04-03T17:39:44;6.00;1.00
9323;DHT22;4700;48.822;9.270;2023-04-03T17:42:32;6.00;1.00
9323;DHT22;4700;48.822;9.270;2023-04-03T17:45:18;5.90;1.00
9323;DHT22;4700;48.822;9.270;2023-04-03T17:48:04;5.80;1.00
9323;DHT22;4700;48.822;9.270;2023-04-03T17:50:49;5.80;1.00
9323;DHT22;4700;48.822;9.270;2023-04-03T17:53:36;5.80;1.00
9323;DHT22;4700;48.822;9.270;2023-04-03T17:56:24;5.80;1.00
9323;DHT22;4700;48.822;9.270;2023-04-03T17:59:12;5.70;1.00
9323;DHT22;4700;48.822;9.270;2023-04-03T18:01:58;5.60;1.00
9323;DHT22;4700;48.822;9.270;2023-04-03T18:04:44;6.60;1.00
9323;DHT22;4700;48.822;9.270;2023-04-03T18:07:29;5.60;1.00
9323;DHT22;4700;48.822;9.270;2023-04-03T18:10:16;5.60;1.00
9323;DHT22;4700;48.822;9.270;2023-04-03T18:13:03;5.60;1.00
9323;DHT22;4700;48.822;9.270;2023-04-03T18:15:51;5.50;1.00
9323;DHT22;4700;48.822;9.270;2023-04-03T18:18:37;5.50;1.00
9323;DHT22;4700;48.822;9.270;2023-04-03T18:21:23;5.40;1.00
9323;DHT22;4700;48.822;9.270;2023-04-03T18:24:12;5.40;1.00
9323;DHT22;4700;48.822;9.270;2023-04-03T18:27:00;5.30;1.00
9323;DHT22;4700;48.822;9.270;2023-04-03T18:29:49;5.20;1.00
9323;DHT22;4700;48.822;9.270;2023-04-03T18:32:38;4.90;1.00
9323;DHT22;4700;48.822;9.270;2023-04-03T18:43:01;4.60;1.00
9323;DHT22;4700;48.822;9.270;2023-04-03T18:48:19;4.40;1.00
9323;DHT22;4700;48.822;9.270;2023-04-03T18:51:04;4.30;1.00
9323;DHT22;4700;48.822;9.270;2023-04-03T19:09:18;4.40;1.00
9323;DHT22;4700;48.822;9.270;2023-04-03T19:14:37;4.40;1.00
9323;DHT22;4700;48.822;9.270;2023-04-03T19:17:26;4.30;1.00
9323;DHT22;4700;48.822;9.270;2023-04-03T19:35:31;4.40;1.00
9323;DHT22;4700;48.822;9.270;2023-04-03T19:45:55;4.30;1.00
9323;DHT22;4700;48.822;9.270;2023-04-03T19:48:46;4.30;1.00
9323;DHT22;4700;48.822;9.270;2023-04-03T19:56:48;4.20;1.00
9323;DHT22;4700;48.822;9.270;2023-04-03T20:15:03;3.70;1.00
9323;DHT22;4700;48.822;9.270;2023-04-03T20:41:11;2.90;1.00
9323;DHT22;4700;48.822;9.270;2023-04-03T21:24:35;2.40;1.00
9323;DHT22;4700;48.822;9.270;2023-04-03T22:16:11;2.00;1.00
9323;DHT22;4700;48.822;9.270;2023-04-03T23:10:41;1.60;1.00
9323;DHT22;4700;48.822;9.270;2023-04-03T23:13:30;1.60;1.00
9323;DHT22;4700;48.822;9.270;2023-04-03T23:16:17;1.60;1.00
9323;DHT22;4700;48.822;9.270;2023-04-03T23:26:51;1.50;1.00
9323;DHT22;4700;48.822;9.270;2023-04-03T23:34:44;1.40;1.00
9323;DHT22;4700;48.822;9.270;2023-04-03T23:55:37;1.20;1.00
